Time,TemperatureF,DewpointF,PressureIn,WindDirection,WindDirectionDegrees,WindSpeedMPH,WindSpeedGustMPH,Humidity,HourlyPrecipIn,Conditions,Clouds,dailyrainin,SoftwareType,DateUTC
2013-02-04 00:00:00,21.6,14.2,29.85,WSW,247,2.0,3.6,73,0.00,,,0.00,WUHU21623XXSP,2013-02-04 05:00:00,
2013-02-04 00:01:00,21.6,14.2,29.85,WSW,247,2.0,3.6,73,0.00,,,0.00,WUHU21623XXSP,2013-02-04 05:01:00,
2013-02-04 00:02:00,21.6,14.2,29.85,West,270,1.1,5.8,73,0.00,,,0.00,WUHU21623XXSP,2013-02-04 05:02:00,
2013-02-04 00:07:00,21.6,14.2,29.85,WNW,292,1.3,5.8,73,0.00,,,0.00,WUHU21623XXSP,2013-02-04 05:07:00,
2013-02-04 00:12:00,21.6,14.2,29.85,NW,315,0.0,3.1,73,0.00,,,0.00,WUHU21623XXSP,2013-02-04 05:12:00,
2013-02-04 00:17:00,21.6,14.2,29.85,NW,315,1.3,5.4,73,0.00,,,0.00,WUHU21623XXSP,2013-02-04 05:17:00,
2013-02-04 00:22:00,21.6,14.2,29.85,WSW,247,0.0,6.3,73,0.00,,,0.00,WUHU21623XXSP,2013-02-04 05:22:00,
2013-02-04 00:27:00,21.6,14.2,29.85,SSW,202,0.0,6.3,73,0.00,,,0.00,WUHU21623XXSP,2013-02-04 05:27:00,
2013-02-04 00:32:00,21.4,14.0,29.85,WNW,292,7.4,8.1,73,0.00,,,0.00,WUHU21623XXSP,2013-02-04 05:32:00,
2013-02-04 00:37:00,21.4,14.3,29.85,West,270,1.3,8.9,74,0.00,,,0.00,WUHU21623XXSP,2013-02-04 05:37:00,
2013-02-04 00:42:00,21.4,14.6,29.85,WSW,247,2.5,8.9,75,0.00,,,0.00,WUHU21623XXSP,2013-02-04 05:42:00,
2013-02-04 00:47:00,21.4,14.6,29.85,WSW,247,4.5,5.1,75,0.00,,,0.00,WUHU21623XXSP,2013-02-04 05:47:00,
2013-02-04 00:52:00,21.4,14.9,29.85,West,270,0.0,4.7,76,0.00,,,0.00,WUHU21623XXSP,2013-02-04 05:52:00,
2013-02-04 00:57:00,21.4,14.9,29.85,NNW,337,0.0,4.7,76,0.00,,,0.00,WUHU21623XXSP,2013-02-04 05:57:00,
2013-02-04 01:02:00,21.4,14.9,29.85,SW,225,3.4,3.4,76,0.00,,,0.00,WUHU21623XXSP,2013-02-04 06:02:00,
2013-02-04 01:10:00,21.4,14.9,29.85,SW,225,5.4,5.4,76,0.00,,,0.00,WUHU21623XXSP,2013-02-04 06:10:00,
2013-02-04 01:15:00,21.4,14.9,29.85,NW,315,4.5,5.4,76,0.00,,,0.00,WUHU21623XXSP,2013-02-04 06:15:00,
2013-02-04 01:20:00,21.4,14.9,29.85,WNW,292,3.1,5.1,76,0.00,,,0.00,WUHU21623XXSP,2013-02-04 06:20:00,
2013-02-04 01:25:00,21.4,14.9,29.85,West,270,0.0,5.1,76,0.00,,,0.00,WUHU21623XXSP,2013-02-04 06:25:00,
2013-02-04 01:30:00,21.4,15.2,29.85,West,270,0.0,5.4,77,0.00,,,0.00,WUHU21623XXSP,2013-02-04 06:30:00,
2013-02-04 01:35:00,21.4,15.5,29.85,WSW,247,2.7,5.4,78,0.00,,,0.00,WUHU21623XXSP,2013-02-04 06:35:00,
2013-02-04 01:40:00,21.4,15.5,29.84,West,270,0.0,3.8,78,0.00,,,0.00,WUHU21623XXSP,2013-02-04 06:40:00,
2013-02-04 01:45:00,21.4,15.5,29.84,NW,315,0.9,4.5,78,0.00,,,0.00,WUHU21623XXSP,2013-02-04 06:45:00,
2013-02-04 01:50:00,21.0,15.5,29.84,WNW,292,1.1,4.5,79,0.00,,,0.00,WUHU21623XXSP,2013-02-04 06:50:00,
2013-02-04 01:55:00,21.0,15.5,29.84,West,270,0.0,5.4,79,0.00,,,0.00,WUHU21623XXSP,2013-02-04 06:55:00,
2013-02-04 02:00:00,21.0,15.5,29.84,West,270,0.0,5.4,79,0.00,,,0.00,WUHU21623XXSP,2013-02-04 07:00:00,
2013-02-04 02:05:00,21.0,15.5,29.84,West,270,0.0,1.3,79,0.00,,,0.00,WUHU21623XXSP,2013-02-04 07:05:00,
2013-02-04 02:10:00,21.0,15.5,29.84,West,270,2.9,4.0,79,0.00,,,0.00,WUHU21623XXSP,2013-02-04 07:10:00,
2013-02-04 02:15:00,21.0,15.8,29.84,West,270,0.0,4.0,80,0.00,,,0.00,WUHU21623XXSP,2013-02-04 07:15:00,
2013-02-04 02:20:00,21.0,15.8,29.83,West,270,0.0,3.6,80,0.00,,,0.00,WUHU21623XXSP,2013-02-04 07:20:00,
2013-02-04 02:25:00,21.0,15.8,29.83,NNW,337,0.0,2.9,80,0.00,,,0.00,WUHU21623XXSP,2013-02-04 07:25:00,
2013-02-04 02:30:00,21.0,15.8,29.84,West,270,0.0,2.9,80,0.00,,,0.00,WUHU21623XXSP,2013-02-04 07:30:00,
2013-02-04 02:35:00,21.0,16.1,29.83,West,270,0.0,2.2,81,0.00,,,0.00,WUHU21623XXSP,2013-02-04 07:35:00,
2013-02-04 02:40:00,21.0,16.1,29.83,WSW,247,2.2,3.8,81,0.00,,,0.00,WUHU21623XXSP,2013-02-04 07:40:00,
2013-02-04 02:45:00,21.0,16.1,29.84,WSW,247,1.1,3.8,81,0.00,,,0.00,WUHU21623XXSP,2013-02-04 07:45:00,
2013-02-04 02:50:00,21.0,16.3,29.84,WNW,292,0.0,2.9,82,0.00,,,0.00,WUHU21623XXSP,2013-02-04 07:50:00,
2013-02-04 02:55:00,21.0,16.3,29.84,WNW,292,0.0,2.2,82,0.00,,,0.00,WUHU21623XXSP,2013-02-04 07:55:00,
2013-02-04 03:00:00,21.4,16.7,29.84,South,180,0.0,1.8,82,0.00,,,0.00,WUHU21623XXSP,2013-02-04 08:00:00,
2013-02-04 03:05:00,21.2,16.5,29.83,SW,225,0.0,2.0,82,0.00,,,0.00,WUHU21623XXSP,2013-02-04 08:05:00,
2013-02-04 03:10:00,21.4,16.7,29.83,West,270,0.0,2.0,82,0.00,,,0.00,WUHU21623XXSP,2013-02-04 08:10:00,
2013-02-04 03:15:00,21.4,16.7,29.83,West,270,0.0,2.5,82,0.00,,,0.00,WUHU21623XXSP,2013-02-04 08:15:00,
2013-02-04 03:20:00,21.4,16.7,29.83,WSW,247,0.0,2.9,82,0.00,,,0.00,WUHU21623XXSP,2013-02-04 08:20:00,
2013-02-04 03:25:00,21.4,16.7,29.83,SW,225,0.0,2.9,82,0.00,,,0.00,WUHU21623XXSP,2013-02-04 08:25:00,
2013-02-04 03:30:00,21.4,17.0,29.83,West,270,0.0,1.8,83,0.00,,,0.00,WUHU21623XXSP,2013-02-04 08:30:00,
2013-02-04 03:35:00,21.4,17.0,29.82,WSW,247,0.0,1.8,83,0.00,,,0.00,WUHU21623XXSP,2013-02-04 08:35:00,
2013-02-04 03:40:00,21.4,16.7,29.82,South,180,0.0,1.6,82,0.00,,,0.00,WUHU21623XXSP,2013-02-04 08:40:00,
2013-02-04 03:45:00,21.4,17.0,29.82,SW,225,0.0,2.5,83,0.00,,,0.00,WUHU21623XXSP,2013-02-04 08:45:00,
2013-02-04 03:50:00,21.4,17.0,29.81,SSW,202,0.0,2.5,83,0.00,,,0.00,WUHU21623XXSP,2013-02-04 08:50:00,
2013-02-04 03:55:00,21.4,17.0,29.81,South,180,0.0,0.0,83,0.00,,,0.00,WUHU21623XXSP,2013-02-04 08:55:00,
2013-02-04 04:00:00,21.6,17.1,29.81,South,180,0.0,0.0,83,0.00,,,0.00,WUHU21623XXSP,2013-02-04 09:00:00,
2013-02-04 04:05:00,21.6,17.4,29.81,SSW,202,0.0,0.0,84,0.00,,,0.00,WUHU21623XXSP,2013-02-04 09:05:00,
2013-02-04 04:10:00,21.7,17.6,29.81,SSW,202,0.0,0.0,84,0.00,,,0.00,WUHU21623XXSP,2013-02-04 09:10:00,
2013-02-04 04:15:00,21.7,17.6,29.80,South,180,0.0,0.0,84,0.00,,,0.00,WUHU21623XXSP,2013-02-04 09:15:00,
2013-02-04 04:20:00,21.7,17.6,29.80,SSW,202,0.0,0.0,84,0.00,,,0.00,WUHU21623XXSP,2013-02-04 09:20:00,
2013-02-04 04:25:00,21.7,17.6,29.79,South,180,0.0,0.0,84,0.00,,,0.00,WUHU21623XXSP,2013-02-04 09:25:00,
2013-02-04 04:30:00,21.7,17.6,29.79,SSW,202,0.0,0.0,84,0.00,,,0.00,WUHU21623XXSP,2013-02-04 09:30:00,
2013-02-04 04:35:00,21.7,17.6,29.79,SSW,202,0.0,0.0,84,0.00,,,0.00,WUHU21623XXSP,2013-02-04 09:35:00,
2013-02-04 04:40:00,21.7,17.6,29.79,SSW,202,0.0,0.0,84,0.00,,,0.00,WUHU21623XXSP,2013-02-04 09:40:00,
2013-02-04 04:45:00,21.6,17.4,29.79,SSW,202,0.0,0.0,84,0.00,,,0.00,WUHU21623XXSP,2013-02-04 09:45:00,
2013-02-04 04:50:00,21.6,17.4,29.79,SSW,202,0.0,0.0,84,0.00,,,0.00,WUHU21623XXSP,2013-02-04 09:50:00,
2013-02-04 04:55:00,21.6,17.4,29.79,SSW,202,0.0,0.0,84,0.00,,,0.00,WUHU21623XXSP,2013-02-04 09:55:00,
2013-02-04 05:00:00,21.6,17.4,29.78,SSW,202,0.0,0.0,84,0.00,,,0.00,WUHU21623XXSP,2013-02-04 10:00:00,
2013-02-04 05:05:00,21.6,17.4,29.78,SSE,157,0.0,0.0,84,0.00,,,0.00,WUHU21623XXSP,2013-02-04 10:05:00,
2013-02-04 05:10:00,21.6,17.7,29.78,SSE,157,0.0,0.0,85,0.00,,,0.00,WUHU21623XXSP,2013-02-04 10:10:00,
2013-02-04 05:15:00,21.7,17.9,29.78,SSW,202,0.0,1.1,85,0.00,,,0.00,WUHU21623XXSP,2013-02-04 10:15:00,
2013-02-04 05:20:00,21.6,17.9,29.77,SSE,157,0.0,1.1,85,0.00,,,0.00,WUHU21623XXSP,2013-02-04 10:20:00,
2013-02-04 05:25:00,21.6,17.7,29.78,SSE,157,0.0,2.2,85,0.00,,,0.00,WUHU21623XXSP,2013-02-04 10:25:00,
2013-02-04 05:30:00,21.6,17.7,29.77,South,180,0.0,2.2,85,0.00,,,0.00,WUHU21623XXSP,2013-02-04 10:30:00,
2013-02-04 05:35:00,21.6,17.7,29.77,SE,135,0.0,3.1,85,0.00,,,0.00,WUHU21623XXSP,2013-02-04 10:35:00,
2013-02-04 05:40:00,21.4,17.2,29.77,SSE,157,0.0,3.1,84,0.00,,,0.00,WUHU21623XXSP,2013-02-04 10:40:00,
2013-02-04 05:45:00,21.4,17.5,29.77,SSE,157,0.0,0.9,85,0.00,,,0.00,WUHU21623XXSP,2013-02-04 10:45:00,
2013-02-04 05:50:00,21.4,17.5,29.77,SE,135,0.9,2.5,85,0.00,,,0.00,WUHU21623XXSP,2013-02-04 10:50:00,
2013-02-04 05:55:00,21.4,17.5,29.77,SSW,202,2.9,3.4,85,0.00,,,0.00,WUHU21623XXSP,2013-02-04 10:55:00,
2013-02-04 06:00:00,21.2,17.1,29.77,South,180,0.0,3.4,84,0.00,,,0.00,WUHU21623XXSP,2013-02-04 11:00:00,
2013-02-04 06:05:00,21.0,16.9,29.77,SE,135,0.0,2.9,84,0.00,,,0.00,WUHU21623XXSP,2013-02-04 11:05:00,
2013-02-04 06:10:00,21.0,16.9,29.77,SE,135,0.0,2.9,84,0.00,,,0.00,WUHU21623XXSP,2013-02-04 11:10:00,
2013-02-04 06:15:00,21.0,16.9,29.76,South,180,1.8,6.0,84,0.00,,,0.00,WUHU21623XXSP,2013-02-04 11:15:00,
2013-02-04 06:20:00,20.8,16.7,29.77,SSE,157,0.0,6.0,84,0.00,,,0.00,WUHU21623XXSP,2013-02-04 11:20:00,
2013-02-04 06:25:00,20.8,16.7,29.76,ESE,112,0.0,2.2,84,0.00,,,0.00,WUHU21623XXSP,2013-02-04 11:25:00,
2013-02-04 06:30:00,20.8,16.7,29.77,ESE,112,0.0,1.1,84,0.00,,,0.00,WUHU21623XXSP,2013-02-04 11:30:00,
2013-02-04 06:35:00,20.8,16.7,29.77,SE,135,0.0,2.0,84,0.00,,,0.00,WUHU21623XXSP,2013-02-04 11:35:00,
2013-02-04 06:40:00,20.7,16.5,29.77,SE,135,0.0,2.0,84,0.00,,,0.00,WUHU21623XXSP,2013-02-04 11:40:00,
2013-02-04 06:45:00,20.7,16.5,29.77,South,180,0.0,2.0,84,0.00,,,0.00,WUHU21623XXSP,2013-02-04 11:45:00,
2013-02-04 06:50:00,20.5,16.3,29.77,SE,135,0.0,2.0,84,0.00,,,0.00,WUHU21623XXSP,2013-02-04 11:50:00,
2013-02-04 06:55:00,20.5,16.3,29.77,South,180,0.0,1.1,84,0.00,,,0.00,WUHU21623XXSP,2013-02-04 11:55:00,
2013-02-04 07:00:00,20.5,16.3,29.77,ESE,112,0.0,1.1,84,0.00,,,0.00,WUHU21623XXSP,2013-02-04 12:00:00,
2013-02-04 07:05:00,20.5,16.3,29.77,ESE,112,0.0,0.0,84,0.00,,,0.00,WUHU21623XXSP,2013-02-04 12:05:00,
2013-02-04 07:10:00,20.5,16.3,29.77,ESE,112,0.0,0.0,84,0.00,,,0.00,WUHU21623XXSP,2013-02-04 12:10:00,
2013-02-04 07:15:00,20.5,16.3,29.77,SSE,157,0.0,0.0,84,0.00,,,0.00,WUHU21623XXSP,2013-02-04 12:15:00,
2013-02-04 07:20:00,20.5,16.3,29.77,SE,135,0.0,0.0,84,0.00,,,0.00,WUHU21623XXSP,2013-02-04 12:20:00,
2013-02-04 07:25:00,20.5,16.3,29.77,ESE,112,0.0,0.0,84,0.00,,,0.00,WUHU21623XXSP,2013-02-04 12:25:00,
2013-02-04 07:30:00,20.5,16.3,29.77,SSE,157,0.0,0.0,84,0.00,,,0.00,WUHU21623XXSP,2013-02-04 12:30:00,
2013-02-04 07:35:00,20.5,16.3,29.77,SE,135,0.0,0.0,84,0.00,,,0.00,WUHU21623XXSP,2013-02-04 12:35:00,
2013-02-04 07:40:00,20.5,16.6,29.77,SE,135,0.0,0.0,85,0.00,,,0.00,WUHU21623XXSP,2013-02-04 12:40:00,
2013-02-04 07:45:00,20.5,16.6,29.77,SE,135,0.0,0.0,85,0.00,,,0.00,WUHU21623XXSP,2013-02-04 12:45:00,
2013-02-04 07:50:00,20.5,16.6,29.77,ESE,112,0.0,0.0,85,0.00,,,0.00,WUHU21623XXSP,2013-02-04 12:50:00,
2013-02-04 07:55:00,20.7,16.8,29.77,SE,135,0.0,0.0,85,0.00,,,0.00,WUHU21623XXSP,2013-02-04 12:55:00,
2013-02-04 08:00:00,20.5,16.6,29.77,East,90,0.0,0.0,85,0.00,,,0.00,WUHU21623XXSP,2013-02-04 13:00:00,
2013-02-04 08:05:00,20.8,17.0,29.77,SE,135,0.0,0.0,85,0.00,,,0.00,WUHU21623XXSP,2013-02-04 13:05:00,
2013-02-04 08:10:00,20.8,17.0,29.77,SSE,157,0.0,0.0,85,0.00,,,0.00,WUHU21623XXSP,2013-02-04 13:10:00,
2013-02-04 08:15:00,20.8,17.0,29.77,South,180,0.0,0.9,85,0.00,,,0.00,WUHU21623XXSP,2013-02-04 13:15:00,
2013-02-04 08:20:00,20.8,17.0,29.77,SSE,157,0.0,1.3,85,0.00,,,0.00,WUHU21623XXSP,2013-02-04 13:20:00,
2013-02-04 08:25:00,20.8,17.0,29.77,ESE,112,0.9,1.3,85,0.00,,,0.00,WUHU21623XXSP,2013-02-04 13:25:00,
2013-02-04 08:30:00,21.0,17.1,29.77,SSE,157,0.0,1.8,85,0.00,,,0.00,WUHU21623XXSP,2013-02-04 13:30:00,
2013-02-04 08:35:00,21.0,17.1,29.77,SSE,157,0.0,1.8,85,0.00,,,0.00,WUHU21623XXSP,2013-02-04 13:35:00,
2013-02-04 08:40:00,20.8,17.0,29.77,SSE,157,0.0,1.3,85,0.00,,,0.00,WUHU21623XXSP,2013-02-04 13:40:00,
2013-02-04 08:45:00,21.0,17.1,29.76,South,180,0.0,2.9,85,0.00,,,0.00,WUHU21623XXSP,2013-02-04 13:45:00,
2013-02-04 08:50:00,21.0,17.1,29.77,ESE,112,0.0,2.9,85,0.00,,,0.00,WUHU21623XXSP,2013-02-04 13:50:00,
2013-02-04 08:55:00,21.0,17.1,29.77,SE,135,0.0,1.6,85,0.00,,,0.00,WUHU21623XXSP,2013-02-04 13:55:00,
2013-02-04 09:00:00,21.0,17.1,29.77,East,90,0.0,1.1,85,0.00,,,0.00,WUHU21623XXSP,2013-02-04 14:00:00,
2013-02-04 09:05:00,21.0,17.1,29.77,SSE,157,0.0,0.9,85,0.00,,,0.00,WUHU21623XXSP,2013-02-04 14:05:00,
2013-02-04 09:10:00,21.4,17.5,29.77,SSE,157,0.0,2.5,85,0.00,,,0.00,WUHU21623XXSP,2013-02-04 14:10:00,
2013-02-04 09:15:00,21.4,17.5,29.77,SSE,157,0.0,2.5,85,0.00,,,0.00,WUHU21623XXSP,2013-02-04 14:15:00,
2013-02-04 09:20:00,21.4,17.5,29.77,South,180,0.0,1.6,85,0.00,,,0.00,WUHU21623XXSP,2013-02-04 14:20:00,
2013-02-04 09:25:00,21.4,17.5,29.76,SSE,157,0.0,2.2,85,0.00,,,0.00,WUHU21623XXSP,2013-02-04 14:25:00,
2013-02-04 09:30:00,21.6,17.4,29.76,SSW,202,1.1,4.0,84,0.00,,,0.00,WUHU21623XXSP,2013-02-04 14:30:00,
2013-02-04 09:35:00,21.6,17.4,29.76,SE,135,0.0,4.0,84,0.00,,,0.00,WUHU21623XXSP,2013-02-04 14:35:00,
2013-02-04 09:40:00,21.9,17.8,29.76,SE,135,0.0,1.8,84,0.00,,,0.00,WUHU21623XXSP,2013-02-04 14:40:00,
2013-02-04 09:45:00,21.9,17.8,29.76,SE,135,0.0,2.0,84,0.00,,,0.00,WUHU21623XXSP,2013-02-04 14:45:00,
2013-02-04 09:50:00,22.1,18.0,29.76,SSE,157,0.0,2.9,84,0.00,,,0.00,WUHU21623XXSP,2013-02-04 14:50:00,
2013-02-04 09:55:00,22.3,18.1,29.75,East,90,0.0,2.9,84,0.00,,,0.00,WUHU21623XXSP,2013-02-04 14:55:00,
2013-02-04 10:00:00,22.5,18.0,29.75,West,270,0.0,1.1,83,0.00,,,0.00,WUHU21623XXSP,2013-02-04 15:00:00,
2013-02-04 10:05:00,22.8,18.4,29.75,East,90,0.0,1.1,83,0.00,,,0.00,WUHU21623XXSP,2013-02-04 15:05:00,
2013-02-04 10:10:00,23.2,18.8,29.74,SE,135,1.3,1.6,83,0.00,,,0.00,WUHU21623XXSP,2013-02-04 15:10:00,
2013-02-04 10:15:00,23.2,18.5,29.75,East,90,0.0,1.6,82,0.00,,,0.00,WUHU21623XXSP,2013-02-04 15:15:00,
2013-02-04 10:20:00,23.4,18.7,29.74,East,90,0.0,0.9,82,0.00,,,0.00,WUHU21623XXSP,2013-02-04 15:20:00,
2013-02-04 10:25:00,23.5,18.9,29.74,SE,135,0.0,2.5,82,0.00,,,0.00,WUHU21623XXSP,2013-02-04 15:25:00,
2013-02-04 10:30:00,23.7,19.0,29.74,SE,135,0.0,2.9,82,0.00,,,0.00,WUHU21623XXSP,2013-02-04 15:30:00,
2013-02-04 10:35:00,23.7,18.8,29.74,SE,135,0.0,3.8,81,0.00,,,0.00,WUHU21623XXSP,2013-02-04 15:35:00,
2013-02-04 10:40:00,23.9,18.9,29.74,SE,135,1.3,3.8,81,0.00,,,0.00,WUHU21623XXSP,2013-02-04 15:40:00,
2013-02-04 10:45:00,24.1,19.1,29.74,ENE,67,0.0,3.4,81,0.00,,,0.00,WUHU21623XXSP,2013-02-04 15:45:00,
2013-02-04 10:50:00,24.4,19.5,29.73,East,90,0.0,2.7,81,0.00,,,0.00,WUHU21623XXSP,2013-02-04 15:50:00,
2013-02-04 10:55:00,24.6,19.7,29.74,SSE,157,0.0,2.9,81,0.00,,,0.00,WUHU21623XXSP,2013-02-04 15:55:00,
2013-02-04 11:00:00,25.0,20.0,29.73,SE,135,0.0,2.9,81,0.00,,,0.00,WUHU21623XXSP,2013-02-04 16:00:00,
2013-02-04 11:05:00,25.3,20.1,29.73,East,90,0.0,2.5,80,0.00,,,0.00,WUHU21623XXSP,2013-02-04 16:05:00,
2013-02-04 11:10:00,25.5,20.2,29.73,East,90,0.0,1.3,80,0.00,,,0.00,WUHU21623XXSP,2013-02-04 16:10:00,
2013-02-04 11:15:00,25.7,20.1,29.73,East,90,0.0,1.8,79,0.00,,,0.00,WUHU21623XXSP,2013-02-04 16:15:00,
2013-02-04 11:20:00,26.2,20.6,29.73,NNE,22,0.0,2.5,79,0.00,,,0.00,WUHU21623XXSP,2013-02-04 16:20:00,
2013-02-04 11:25:00,26.4,20.7,29.73,ENE,67,0.0,2.5,79,0.00,,,0.00,WUHU21623XXSP,2013-02-04 16:25:00,
2013-02-04 11:30:00,26.8,20.8,29.73,East,90,1.3,1.8,78,0.00,,,0.00,WUHU21623XXSP,2013-02-04 16:30:00,
2013-02-04 11:35:00,27.0,20.8,29.73,NE,45,0.0,1.6,78,0.00,,,0.00,WUHU21623XXSP,2013-02-04 16:35:00,
2013-02-04 11:40:00,27.3,21.3,29.73,SE,135,0.0,2.5,78,0.00,,,0.00,WUHU21623XXSP,2013-02-04 16:40:00,
2013-02-04 11:45:00,27.7,21.4,29.73,NE,45,0.0,2.5,77,0.00,,,0.00,WUHU21623XXSP,2013-02-04 16:45:00,
2013-02-04 11:50:00,28.0,21.7,29.72,NNE,22,1.3,1.3,77,0.00,,,0.00,WUHU21623XXSP,2013-02-04 16:50:00,
2013-02-04 11:55:00,28.2,21.6,29.72,NE,45,0.0,1.3,76,0.00,,,0.00,WUHU21623XXSP,2013-02-04 16:55:00,
2013-02-04 12:00:00,28.8,22.1,29.72,NE,45,0.0,1.3,76,0.00,,,0.00,WUHU21623XXSP,2013-02-04 17:00:00,
2013-02-04 12:05:00,29.1,22.5,29.72,SE,135,2.0,2.0,76,0.00,,,0.00,WUHU21623XXSP,2013-02-04 17:05:00,
2013-02-04 12:10:00,29.5,22.5,29.72,ESE,112,0.0,4.5,75,0.00,,,0.00,WUHU21623XXSP,2013-02-04 17:10:00,
2013-02-04 12:15:00,29.5,22.5,29.71,SSE,157,0.0,4.5,75,0.00,,,0.00,WUHU21623XXSP,2013-02-04 17:15:00,
2013-02-04 12:20:00,29.8,22.8,29.71,ENE,67,0.0,0.0,75,0.00,,,0.00,WUHU21623XXSP,2013-02-04 17:20:00,
2013-02-04 12:25:00,30.0,22.7,29.71,NE,45,0.0,1.8,74,0.00,,,0.00,WUHU21623XXSP,2013-02-04 17:25:00,
2013-02-04 12:30:00,30.4,23.0,29.71,NNE,22,2.2,2.2,74,0.00,,,0.00,WUHU21623XXSP,2013-02-04 17:30:00,
2013-02-04 12:35:00,30.6,22.9,29.71,NNE,22,0.0,2.2,73,0.00,,,0.00,WUHU21623XXSP,2013-02-04 17:35:00,
2013-02-04 12:40:00,30.6,22.9,29.71,ENE,67,0.0,2.2,73,0.00,,,0.00,WUHU21623XXSP,2013-02-04 17:40:00,
2013-02-04 12:45:00,30.7,22.7,29.71,East,90,0.0,2.2,72,0.00,,,0.00,WUHU21623XXSP,2013-02-04 17:45:00,
2013-02-04 12:50:00,30.7,22.4,29.70,NNE,22,1.8,4.0,71,0.00,,,0.00,WUHU21623XXSP,2013-02-04 17:50:00,
2013-02-04 12:55:00,30.4,22.4,29.71,NE,45,0.0,4.0,72,0.00,,,0.00,WUHU21623XXSP,2013-02-04 17:55:00,
2013-02-04 13:00:00,30.0,21.7,29.71,East,90,0.0,3.4,71,0.00,,,0.00,WUHU21623XXSP,2013-02-04 18:00:00,
2013-02-04 13:05:00,30.0,22.0,29.71,NE,45,0.0,2.7,72,0.00,,,0.00,WUHU21623XXSP,2013-02-04 18:05:00,
2013-02-04 13:10:00,30.2,22.2,29.71,East,90,1.3,3.1,72,0.00,,,0.00,WUHU21623XXSP,2013-02-04 18:10:00,
2013-02-04 13:15:00,30.0,21.7,29.71,NE,45,0.0,3.1,71,0.00,,,0.00,WUHU21623XXSP,2013-02-04 18:15:00,
2013-02-04 13:20:00,29.8,21.9,29.71,ENE,67,0.0,2.9,72,0.00,,,0.00,WUHU21623XXSP,2013-02-04 18:20:00,
2013-02-04 13:25:00,29.7,21.7,29.71,NNE,22,1.1,4.3,72,0.00,,,0.00,WUHU21623XXSP,2013-02-04 18:25:00,
2013-02-04 13:30:00,29.7,21.7,29.71,NNE,22,1.1,4.3,72,0.00,,,0.00,WUHU21623XXSP,2013-02-04 18:30:00,
2013-02-04 13:35:00,29.5,21.5,29.71,NE,45,2.0,3.6,72,0.00,,,0.00,WUHU21623XXSP,2013-02-04 18:35:00,
2013-02-04 13:40:00,29.5,21.5,29.71,NNE,22,2.0,3.6,72,0.00,,,0.00,WUHU21623XXSP,2013-02-04 18:40:00,
2013-02-04 13:45:00,29.3,21.4,29.70,ENE,67,0.0,3.6,72,0.00,,,0.00,WUHU21623XXSP,2013-02-04 18:45:00,
2013-02-04 13:50:00,29.5,21.8,29.70,ENE,67,0.0,2.9,73,0.00,,,0.00,WUHU21623XXSP,2013-02-04 18:50:00,
2013-02-04 13:55:00,29.7,22.0,29.70,ENE,67,0.0,2.2,73,0.00,,,0.00,WUHU21623XXSP,2013-02-04 18:55:00,
2013-02-04 14:00:00,30.0,22.4,29.70,ENE,67,0.0,4.0,73,0.00,,,0.00,WUHU21623XXSP,2013-02-04 19:00:00,
2013-02-04 14:05:00,30.0,22.4,29.70,NE,45,4.3,4.3,73,0.00,,,0.00,WUHU21623XXSP,2013-02-04 19:05:00,
2013-02-04 14:10:00,30.2,22.2,29.70,NE,45,2.5,4.3,72,0.00,,,0.00,WUHU21623XXSP,2013-02-04 19:10:00,
2013-02-04 14:15:00,30.0,21.9,29.70,NNE,22,1.3,4.0,71,0.00,,,0.00,WUHU21623XXSP,2013-02-04 19:15:00,
2013-02-04 14:20:00,30.2,22.2,29.69,ENE,67,0.0,4.0,72,0.00,,,0.00,WUHU21623XXSP,2013-02-04 19:20:00,
2013-02-04 14:25:00,30.4,22.4,29.69,ENE,67,2.0,3.6,72,0.00,,,0.00,WUHU21623XXSP,2013-02-04 19:25:00,
2013-02-04 14:30:00,30.6,22.2,29.69,NE,45,3.1,4.7,71,0.00,,,0.00,WUHU21623XXSP,2013-02-04 19:30:00,
2013-02-04 14:35:00,30.7,22.4,29.69,NNE,22,3.6,5.4,71,0.00,,,0.00,WUHU21623XXSP,2013-02-04 19:35:00,
2013-02-04 14:40:00,30.7,22.4,29.69,NNE,22,2.0,5.4,71,0.00,,,0.00,WUHU21623XXSP,2013-02-04 19:40:00,
2013-02-04 14:45:00,30.4,22.1,29.69,NE,45,0.0,4.5,71,0.00,,,0.00,WUHU21623XXSP,2013-02-04 19:45:00,
2013-02-04 14:50:00,30.4,21.7,29.69,NNE,22,2.5,4.5,70,0.00,,,0.00,WUHU21623XXSP,2013-02-04 19:50:00,
2013-02-04 14:55:00,30.0,21.7,29.70,NNE,22,0.9,3.8,71,0.00,,,0.00,WUHU21623XXSP,2013-02-04 19:55:00,
2013-02-04 15:00:00,30.0,21.7,29.70,NNE,22,2.7,4.9,71,0.00,,,0.00,WUHU21623XXSP,2013-02-04 20:00:00,
2013-02-04 15:05:00,30.0,21.7,29.70,NNE,22,2.0,4.9,71,0.00,,,0.00,WUHU21623XXSP,2013-02-04 20:05:00,
2013-02-04 15:10:00,30.0,21.7,29.70,NE,45,0.0,4.3,71,0.00,,,0.00,WUHU21623XXSP,2013-02-04 20:10:00,
2013-02-04 15:15:00,30.4,22.1,29.70,NNE,22,2.5,3.6,71,0.00,,,0.00,WUHU21623XXSP,2013-02-04 20:15:00,
2013-02-04 15:20:00,30.4,22.1,29.70,NE,45,1.6,3.6,71,0.00,,,0.00,WUHU21623XXSP,2013-02-04 20:20:00,
2013-02-04 15:25:00,30.4,22.1,29.70,NE,45,0.0,2.9,71,0.00,,,0.00,WUHU21623XXSP,2013-02-04 20:25:00,
2013-02-04 15:30:00,30.0,21.7,29.70,ENE,67,0.0,3.1,71,0.00,,,0.00,WUHU21623XXSP,2013-02-04 20:30:00,
2013-02-04 15:35:00,30.0,21.7,29.70,ENE,67,0.0,3.1,71,0.00,,,0.00,WUHU21623XXSP,2013-02-04 20:35:00,
2013-02-04 15:40:00,30.0,21.9,29.70,NE,45,0.0,3.1,71,0.00,,,0.00,WUHU21623XXSP,2013-02-04 20:40:00,
2013-02-04 15:45:00,30.4,22.1,29.69,NE,45,2.2,3.8,71,0.00,,,0.00,WUHU21623XXSP,2013-02-04 20:45:00,
2013-02-04 15:50:00,30.2,21.6,29.70,NNE,22,0.0,3.8,70,0.00,,,0.00,WUHU21623XXSP,2013-02-04 20:50:00,
2013-02-04 15:55:00,30.2,21.6,29.71,NE,45,0.0,3.8,70,0.00,,,0.00,WUHU21623XXSP,2013-02-04 20:55:00,
2013-02-04 16:00:00,30.4,21.9,29.71,NNE,22,0.9,3.6,71,0.00,,,0.00,WUHU21623XXSP,2013-02-04 21:00:00,
2013-02-04 16:05:00,30.2,21.9,29.71,NNE,22,2.0,4.5,71,0.00,,,0.00,WUHU21623XXSP,2013-02-04 21:05:00,
2013-02-04 16:11:00,30.0,21.4,29.71,North,0,3.1,4.5,70,0.00,,,0.00,WUHU21623XXSP,2013-02-04 21:11:00,
2013-02-04 16:16:00,29.8,21.5,29.71,ENE,67,1.8,3.8,71,0.00,,,0.00,WUHU21623XXSP,2013-02-04 21:16:00,
2013-02-04 16:21:00,29.7,21.1,29.71,NE,45,0.0,2.7,70,0.00,,,0.00,WUHU21623XXSP,2013-02-04 21:21:00,
2013-02-04 16:26:00,29.5,20.9,29.71,NNE,22,0.9,4.3,70,0.00,,,0.00,WUHU21623XXSP,2013-02-04 21:26:00,
2013-02-04 16:31:00,29.5,20.9,29.70,NE,45,0.0,4.3,70,0.00,,,0.00,WUHU21623XXSP,2013-02-04 21:31:00,
2013-02-04 16:36:00,29.1,20.9,29.70,NE,45,0.9,2.0,71,0.00,,,0.00,WUHU21623XXSP,2013-02-04 21:36:00,
2013-02-04 16:41:00,29.1,20.9,29.69,NE,45,0.0,2.0,71,0.00,,,0.00,WUHU21623XXSP,2013-02-04 21:41:00,
2013-02-04 16:46:00,28.9,20.7,29.69,NNE,22,0.0,4.0,71,0.00,,,0.00,WUHU21623XXSP,2013-02-04 21:46:00,
2013-02-04 16:51:00,28.9,21.0,29.69,NE,45,0.0,4.0,72,0.00,,,0.00,WUHU21623XXSP,2013-02-04 21:51:00,
2013-02-04 16:56:00,28.6,20.7,29.69,ENE,67,0.0,2.0,72,0.00,,,0.00,WUHU21623XXSP,2013-02-04 21:56:00,
2013-02-04 17:01:00,28.6,20.7,29.69,ENE,67,0.0,2.2,72,0.00,,,0.00,WUHU21623XXSP,2013-02-04 22:01:00,
2013-02-04 17:06:00,28.6,21.0,29.69,ENE,67,0.0,2.2,73,0.00,,,0.00,WUHU21623XXSP,2013-02-04 22:06:00,
2013-02-04 17:11:00,28.2,20.7,29.69,ESE,112,0.0,0.9,73,0.00,,,0.00,WUHU21623XXSP,2013-02-04 22:11:00,
2013-02-04 17:16:00,28.2,20.7,29.68,ENE,67,0.0,1.8,73,0.00,,,0.00,WUHU21623XXSP,2013-02-04 22:16:00,
2013-02-04 17:21:00,28.0,20.5,29.68,NE,45,0.0,1.8,73,0.00,,,0.00,WUHU21623XXSP,2013-02-04 22:21:00,
2013-02-04 17:26:00,27.7,20.1,29.68,NNE,22,2.9,2.9,73,0.00,,,0.00,WUHU21623XXSP,2013-02-04 22:26:00,
2013-02-04 17:31:00,27.5,20.0,29.69,NNE,22,0.0,2.9,73,0.00,,,0.00,WUHU21623XXSP,2013-02-04 22:31:00,
2013-02-04 17:36:00,27.1,19.9,29.68,NNE,22,0.0,2.9,74,0.00,,,0.00,WUHU21623XXSP,2013-02-04 22:36:00,
2013-02-04 17:41:00,27.0,19.7,29.69,NNE,22,1.8,2.9,74,0.00,,,0.00,WUHU21623XXSP,2013-02-04 22:41:00,
2013-02-04 17:46:00,26.8,19.5,29.69,NNE,22,1.6,2.9,74,0.00,,,0.00,WUHU21623XXSP,2013-02-04 22:46:00,
2013-02-04 17:51:00,26.4,19.5,29.69,NNE,22,2.0,2.9,75,0.00,,,0.00,WUHU21623XXSP,2013-02-04 22:51:00,
2013-02-04 17:56:00,26.2,19.3,29.69,NNE,22,2.0,2.9,75,0.00,,,0.00,WUHU21623XXSP,2013-02-04 22:56:00,
2013-02-04 18:01:00,26.1,19.1,29.70,NNE,22,4.0,4.3,75,0.00,,,0.00,WUHU21623XXSP,2013-02-04 23:01:00,
2013-02-04 18:06:00,25.7,19.1,29.70,NNE,22,1.6,4.3,76,0.00,,,0.00,WUHU21623XXSP,2013-02-04 23:06:00,
2013-02-04 18:11:00,25.5,18.9,29.71,NE,45,0.0,4.0,76,0.00,,,0.00,WUHU21623XXSP,2013-02-04 23:11:00,
2013-02-04 18:16:00,25.3,18.5,29.71,NNE,22,1.6,4.0,75,0.00,,,0.00,WUHU21623XXSP,2013-02-04 23:16:00,
2013-02-04 18:21:00,25.2,18.6,29.71,NE,45,1.6,4.5,76,0.00,,,0.00,WUHU21623XXSP,2013-02-04 23:21:00,
2013-02-04 18:26:00,25.0,18.4,29.71,NE,45,1.6,4.5,76,0.00,,,0.00,WUHU21623XXSP,2013-02-04 23:26:00,
2013-02-04 18:31:00,24.6,18.1,29.71,NE,45,1.3,3.6,76,0.00,,,0.00,WUHU21623XXSP,2013-02-04 23:31:00,
2013-02-04 18:36:00,24.6,18.4,29.71,NNE,22,1.8,3.8,77,0.00,,,0.00,WUHU21623XXSP,2013-02-04 23:36:00,
2013-02-04 18:41:00,24.4,17.9,29.71,NE,45,0.0,3.8,76,0.00,,,0.00,WUHU21623XXSP,2013-02-04 23:41:00,
2013-02-04 18:46:00,24.4,18.2,29.72,NNE,22,0.0,4.3,77,0.00,,,0.00,WUHU21623XXSP,2013-02-04 23:46:00,
2013-02-04 18:51:00,24.1,17.9,29.72,NNE,22,1.6,4.3,77,0.00,,,0.00,WUHU21623XXSP,2013-02-04 23:51:00,
2013-02-04 18:56:00,24.1,17.9,29.73,North,0,4.0,4.0,77,0.00,,,0.00,WUHU21623XXSP,2013-02-04 23:56:00,
2013-02-04 19:01:00,24.1,17.9,29.73,NE,45,2.0,4.0,77,0.00,,,0.00,WUHU21623XXSP,2013-02-05 00:01:00,
2013-02-04 19:06:00,23.9,18.0,29.73,North,0,0.0,4.5,78,0.00,,,0.00,WUHU21623XXSP,2013-02-05 00:06:00,
2013-02-04 19:11:00,23.9,18.0,29.74,NE,45,0.0,4.5,78,0.00,,,0.00,WUHU21623XXSP,2013-02-05 00:11:00,
2013-02-04 19:16:00,23.7,17.9,29.74,North,0,0.0,2.7,78,0.00,,,0.00,WUHU21623XXSP,2013-02-05 00:16:00,
2013-02-04 19:21:00,23.7,17.9,29.74,NNE,22,0.9,3.1,78,0.00,,,0.00,WUHU21623XXSP,2013-02-05 00:21:00,
2013-02-04 19:26:00,23.5,17.7,29.74,NE,45,2.9,3.4,78,0.00,,,0.00,WUHU21623XXSP,2013-02-05 00:26:00,
2013-02-04 19:31:00,23.5,17.4,29.75,NNE,22,0.0,3.4,77,0.00,,,0.00,WUHU21623XXSP,2013-02-05 00:31:00,
2013-02-04 19:36:00,23.5,17.4,29.74,NNE,22,0.0,3.1,77,0.00,,,0.00,WUHU21623XXSP,2013-02-05 00:36:00,
2013-02-04 19:41:00,23.5,17.4,29.74,North,0,2.5,2.5,77,0.00,,,0.00,WUHU21623XXSP,2013-02-05 00:41:00,
2013-02-04 19:46:00,23.4,17.2,29.75,North,0,0.0,3.4,77,0.00,,,0.00,WUHU21623XXSP,2013-02-05 00:46:00,
2013-02-04 19:51:00,23.2,17.0,29.75,North,0,0.0,3.6,77,0.00,,,0.00,WUHU21623XXSP,2013-02-05 00:51:00,
2013-02-04 19:56:00,23.2,17.0,29.76,North,0,0.0,3.6,77,0.00,,,0.00,WUHU21623XXSP,2013-02-05 00:56:00,
2013-02-04 20:01:00,22.8,16.7,29.75,NE,45,0.0,2.5,77,0.00,,,0.00,WUHU21623XXSP,2013-02-05 01:01:00,
2013-02-04 20:06:00,22.8,16.7,29.76,NNE,22,1.6,2.5,77,0.00,,,0.00,WUHU21623XXSP,2013-02-05 01:06:00,
2013-02-04 20:11:00,22.6,16.5,29.75,North,0,0.0,2.0,77,0.00,,,0.00,WUHU21623XXSP,2013-02-05 01:11:00,
2013-02-04 20:16:00,22.5,16.3,29.76,NNE,22,0.0,2.0,77,0.00,,,0.00,WUHU21623XXSP,2013-02-05 01:16:00,
2013-02-04 20:21:00,22.5,16.3,29.76,NE,45,0.0,1.6,77,0.00,,,0.00,WUHU21623XXSP,2013-02-05 01:21:00,
2013-02-04 20:26:00,22.3,16.1,29.77,NNE,22,0.0,1.6,77,0.00,,,0.00,WUHU21623XXSP,2013-02-05 01:26:00,
2013-02-04 20:31:00,22.3,16.4,29.77,NNE,22,0.0,0.0,78,0.00,,,0.00,WUHU21623XXSP,2013-02-05 01:31:00,
2013-02-04 20:36:00,22.3,16.4,29.77,NE,45,0.0,0.0,78,0.00,,,0.00,WUHU21623XXSP,2013-02-05 01:36:00,
2013-02-04 20:41:00,22.1,16.3,29.76,NNE,22,0.0,0.0,78,0.00,,,0.00,WUHU21623XXSP,2013-02-05 01:41:00,
2013-02-04 20:46:00,22.1,16.3,29.76,NNE,22,0.0,0.0,78,0.00,,,0.00,WUHU21623XXSP,2013-02-05 01:46:00,
2013-02-04 20:51:00,21.9,16.1,29.76,NNE,22,0.0,0.0,78,0.00,,,0.00,WUHU21623XXSP,2013-02-05 01:51:00,
2013-02-04 20:56:00,21.9,16.1,29.76,NE,45,0.0,0.0,78,0.00,,,0.00,WUHU21623XXSP,2013-02-05 01:56:00,
2013-02-04 21:01:00,21.7,15.9,29.76,NE,45,0.0,0.0,78,0.00,,,0.00,WUHU21623XXSP,2013-02-05 02:01:00,
2013-02-04 21:06:00,21.6,15.7,29.76,NE,45,0.0,0.9,78,0.00,,,0.00,WUHU21623XXSP,2013-02-05 02:06:00,
2013-02-04 21:11:00,21.4,15.5,29.75,NE,45,0.0,0.9,78,0.00,,,0.00,WUHU21623XXSP,2013-02-05 02:11:00,
2013-02-04 21:16:00,21.4,15.5,29.75,NNE,22,0.0,0.0,78,0.00,,,0.00,WUHU21623XXSP,2013-02-05 02:16:00,
2013-02-04 21:21:00,21.0,15.5,29.76,NE,45,0.0,0.0,79,0.00,,,0.00,WUHU21623XXSP,2013-02-05 02:21:00,
2013-02-04 21:26:00,20.8,15.3,29.76,ENE,67,0.0,0.0,79,0.00,,,0.00,WUHU21623XXSP,2013-02-05 02:26:00,
2013-02-04 21:31:00,20.5,15.0,29.76,NE,45,0.0,0.0,79,0.00,,,0.00,WUHU21623XXSP,2013-02-05 02:31:00,
2013-02-04 21:36:00,20.5,15.0,29.76,NE,45,0.0,0.0,79,0.00,,,0.00,WUHU21623XXSP,2013-02-05 02:36:00,
2013-02-04 21:41:00,20.3,14.8,29.76,NE,45,0.0,0.0,79,0.00,,,0.00,WUHU21623XXSP,2013-02-05 02:41:00,
2013-02-04 21:46:00,20.1,14.6,29.76,NE,45,0.0,0.0,79,0.00,,,0.00,WUHU21623XXSP,2013-02-05 02:46:00,
2013-02-04 21:51:00,19.9,14.7,29.76,NE,45,0.0,0.0,80,0.00,,,0.00,WUHU21623XXSP,2013-02-05 02:51:00,
2013-02-04 21:56:00,19.6,14.4,29.76,NE,45,0.0,0.0,80,0.00,,,0.00,WUHU21623XXSP,2013-02-05 02:56:00,
2013-02-04 22:01:00,19.6,14.4,29.76,NE,45,0.0,0.0,80,0.00,,,0.00,WUHU21623XXSP,2013-02-05 03:01:00,
2013-02-04 22:06:00,19.6,14.6,29.76,NE,45,0.0,0.0,81,0.00,,,0.00,WUHU21623XXSP,2013-02-05 03:06:00,
2013-02-04 22:11:00,19.6,14.6,29.76,NNE,22,0.0,0.0,81,0.00,,,0.00,WUHU21623XXSP,2013-02-05 03:11:00,
2013-02-04 22:16:00,19.6,14.6,29.77,NNE,22,0.0,0.0,81,0.00,,,0.00,WUHU21623XXSP,2013-02-05 03:16:00,
2013-02-04 22:21:00,19.4,14.4,29.77,NNE,22,0.0,2.5,81,0.00,,,0.00,WUHU21623XXSP,2013-02-05 03:21:00,
2013-02-04 22:26:00,19.4,14.4,29.77,NE,45,0.0,2.5,81,0.00,,,0.00,WUHU21623XXSP,2013-02-05 03:26:00,
2013-02-04 22:31:00,19.2,14.3,29.78,North,0,1.6,2.2,81,0.00,,,0.00,WUHU21623XXSP,2013-02-05 03:31:00,
2013-02-04 22:36:00,19.2,14.3,29.79,NNE,22,0.0,2.7,81,0.00,,,0.00,WUHU21623XXSP,2013-02-05 03:36:00,
2013-02-04 22:41:00,19.2,14.3,29.78,NE,45,0.0,2.7,81,0.00,,,0.00,WUHU21623XXSP,2013-02-05 03:41:00,
2013-02-04 22:46:00,19.2,14.3,29.77,NE,45,0.0,1.8,81,0.00,,,0.00,WUHU21623XXSP,2013-02-05 03:46:00,
2013-02-04 22:51:00,19.0,14.1,29.77,NE,45,0.0,2.0,81,0.00,,,0.00,WUHU21623XXSP,2013-02-05 03:51:00,
2013-02-04 22:56:00,19.0,14.1,29.77,ENE,67,0.0,2.0,81,0.00,,,0.00,WUHU21623XXSP,2013-02-05 03:56:00,
2013-02-04 23:01:00,19.0,14.1,29.76,NE,45,2.0,2.0,81,0.00,,,0.00,WUHU21623XXSP,2013-02-05 04:01:00,
2013-02-04 23:06:00,18.9,13.9,29.76,NNE,22,0.0,2.7,81,0.00,,,0.00,WUHU21623XXSP,2013-02-05 04:06:00,
2013-02-04 23:11:00,18.7,13.5,29.76,ENE,67,0.0,2.7,80,0.00,,,0.00,WUHU21623XXSP,2013-02-05 04:11:00,
2013-02-04 23:16:00,18.7,13.5,29.76,NE,45,0.0,2.2,80,0.00,,,0.00,WUHU21623XXSP,2013-02-05 04:16:00,
2013-02-04 23:21:00,18.5,13.3,29.76,ENE,67,0.0,2.2,80,0.00,,,0.00,WUHU21623XXSP,2013-02-05 04:21:00,
2013-02-04 23:26:00,18.5,13.3,29.77,ENE,67,0.0,0.0,80,0.00,,,0.00,WUHU21623XXSP,2013-02-05 04:26:00,
2013-02-04 23:31:00,18.3,13.1,29.76,ENE,67,0.0,0.0,80,0.00,,,0.00,WUHU21623XXSP,2013-02-05 04:31:00,
2013-02-04 23:36:00,18.3,13.1,29.76,NE,45,0.0,0.0,80,0.00,,,0.00,WUHU21623XXSP,2013-02-05 04:36:00,
2013-02-04 23:41:00,18.1,12.9,29.76,NE,45,0.0,0.0,80,0.00,,,0.00,WUHU21623XXSP,2013-02-05 04:41:00,
2013-02-04 23:46:00,18.0,12.7,29.76,NE,45,0.0,0.0,80,0.00,,,0.00,WUHU21623XXSP,2013-02-05 04:46:00,
2013-02-04 23:51:00,18.0,13.0,29.76,NE,45,0.0,0.0,81,0.00,,,0.00,WUHU21623XXSP,2013-02-05 04:51:00,
2013-02-04 23:56:00,18.0,13.0,29.76,East,90,0.0,0.0,81,0.00,,,0.00,WUHU21623XXSP,2013-02-05 04:56:00,